Time;durP1;ratioP1;P1;durP2;ratioP2;P2;SDS_P1;SDS_P2;PMS_P1;PMS_P2;Temp;Humidity;BMP_temperature;BMP_pressure;BME280_temperature;BME280_humidity;BME280_pressure;Samples;Min_cycle;Max_cycle;Signal;HPM_P1;HPM_P2
2022/12/22 03:27:43;;;;;;;;;;;7.80;99.90;;;;;;5034286;28;19990;-56
2022/12/22 03:30:09;;;;;;;;;;;7.80;99.90;;;;;;5051421;28;19948;-53
2022/12/22 03:32:34;;;;;;;;;;;7.80;99.90;;;;;;5048543;28;19920;-56
2022/12/22 03:35:00;;;;;;;;;;;7.80;99.90;;;;;;5035479;28;19944;-55
2022/12/22 03:37:25;;;;;;;;;;;7.90;99.90;;;;;;5043168;28;19913;-54
2022/12/22 03:39:51;;;;;;;;;;;7.80;99.90;;;;;;5036852;28;19913;-54
2022/12/22 03:47:44;;;;;;;;;;;7.90;99.90;;;;;;5038322;28;19920;-56
2022/12/22 03:50:10;;;;;;;;;;;7.90;99.90;;;;;;5035320;28;19914;-59
2022/12/22 03:52:36;;;;;;;;;;;;;;;;;;5043760;28;19913;-59
2022/12/22 03:55:02;;;;;;;;;;;;;;;;;;5038407;28;19914;-60
2022/12/22 03:57:28;;;;;;;;;;;;;;;;;;5048251;28;19913;-59
2022/12/22 03:59:53;;;;;;;;;;;7.70;99.90;;;;;;5033443;28;19917;-56
2022/12/22 04:02:19;;;;;;;;;;;7.60;99.90;;;;;;5052462;28;20392;-60
2022/12/22 04:04:44;;;;;;;;;;;7.60;99.90;;;;;;5046722;28;20402;-59
2022/12/22 04:07:10;;;;;;;;;;;7.50;99.90;;;;;;5044836;28;20373;-55
2022/12/22 04:12:52;;;;;;;;;;;7.60;99.90;;;;;;5033036;28;20263;-59
2022/12/22 04:15:05;;;;;;;;;;;7.60;99.90;;;;;;5051908;28;19951;-58
2022/12/22 04:17:31;;;;;;;;;;;7.60;99.90;;;;;;5036267;28;19917;-58
2022/12/22 04:19:56;;;;;;;;;;;7.70;99.90;;;;;;5052754;28;19909;-58
2022/12/22 04:22:22;;;;;;;;;;;7.70;99.90;;;;;;5052897;28;19939;-58
2022/12/22 04:24:47;;;;;;;;;;;7.70;99.90;;;;;;5045069;28;19913;-55
2022/12/22 04:27:13;;;;;;;;;;;7.70;99.90;;;;;;5033008;28;19960;-59
2022/12/22 04:29:38;;;;;;;;;;;7.70;99.90;;;;;;5032613;28;19913;-59
2022/12/22 04:32:04;;;;;;;;;;;7.60;99.90;;;;;;5040465;28;19909;-57
2022/12/22 04:34:30;;;;;;;;;;;;;;;;;;5052781;28;20437;-59
2022/12/22 04:36:56;;;;;;;;;;;;;;;;;;5045891;28;20354;-59
2022/12/22 04:39:22;;;;;;;;;;;;;;;;;;5052204;28;19919;-57
2022/12/22 04:41:48;;;;;;;;;;;;;;;;;;5045414;28;19913;-59
2022/12/22 04:44:14;;;;;;;;;;;;;;;;;;5032335;28;19913;-59
2022/12/22 04:46:39;;;;;;;;;;;;;;;;;;5039879;28;19909;-58
2022/12/22 04:49:05;;;;;;;;;;;;;;;;;;5038454;28;19913;-58
2022/12/22 04:51:31;;;;;;;;;;;;;;;;;;5047352;28;19940;-55
2022/12/22 04:53:57;;;;;;;;;;;;;;;;;;5047279;28;19912;-55
2022/12/22 04:56:23;;;;;;;;;;;;;;;;;;5050885;28;19999;-53
2022/12/22 04:58:49;;;;;;;;;;;;;;;;;;5051968;28;19995;-58
2022/12/22 05:01:15;;;;;;;;;;;;;;;;;;5051757;28;19937;-57
2022/12/22 05:03:41;;;;;;;;;;;;;;;;;;5052600;28;19990;-55
2022/12/22 05:06:07;;;;;;;;;;;;;;;;;;5050940;28;19908;-56
2022/12/22 05:08:33;;;;;;;;;;;;;;;;;;5050795;28;20377;-54
2022/12/22 05:10:59;;;;;;;;;;;;;;;;;;5052184;28;19908;-56
2022/12/22 05:13:25;;;;;;;;;;;;;;;;;;5052088;28;20391;-57
2022/12/22 05:15:51;;;;;;;;;;;;;;;;;;5051960;28;20074;-55
2022/12/22 05:18:16;;;;;;;;;;;;;;;;;;5052003;28;19909;-55
2022/12/22 05:20:42;;;;;;;;;;;;;;;;;;5052174;28;19916;-55
2022/12/22 05:23:08;;;;;;;;;;;;;;;;;;5051992;28;19912;-56
2022/12/22 05:25:34;;;;;;;;;;;;;;;;;;5051908;28;19908;-56
2022/12/22 05:28:00;;;;;;;;;;;;;;;;;;5051897;28;20373;-59
2022/12/22 05:30:26;;;;;;;;;;;;;;;;;;5051898;28;19913;-58
2022/12/22 05:32:52;;;;;;;;;;;;;;;;;;5052068;28;20407;-59
2022/12/22 05:35:18;;;;;;;;;;;;;;;;;;5052062;28;20550;-56
2022/12/22 05:37:44;;;;;;;;;;;;;;;;;;5051898;28;19916;-55
2022/12/22 05:40:10;;;;;;;;;;;;;;;;;;5051766;28;19916;-56
2022/12/22 05:42:35;;;;;;;;;;;;;;;;;;5050571;28;19913;-53
2022/12/22 05:45:01;;;;;;;;;;;;;;;;;;5051913;28;20365;-54
2022/12/22 05:47:27;;;;;;;;;;;;;;;;;;5051986;28;19924;-57
2022/12/22 05:49:53;;;;;;;;;;;;;;;;;;5051690;28;19905;-56
2022/12/22 05:52:19;;;;;;;;;;;;;;;;;;5051762;28;19908;-56
2022/12/22 05:54:45;;;;;;;;;;;;;;;;;;5051710;28;19912;-56
2022/12/22 05:57:11;;;;;;;;;;;;;;;;;;5051420;28;20361;-58
2022/12/22 05:59:37;;;;;;;;;;;;;;;;;;5036966;28;19913;-59
2022/12/22 06:02:03;;;;;;;;;;;;;;;;;;5040009;28;19917;-58
2022/12/22 06:04:29;;;;;;;;;;;;;;;;;;5051609;28;19909;-55
2022/12/22 06:06:54;;;;;;;;;;;;;;;;;;5051694;28;19908;-58
2022/12/22 06:09:20;;;;;;;;;;;;;;;;;;5051620;28;20113;-56
2022/12/22 06:11:46;;;;;;;;;;;;;;;;;;5054042;28;19908;-56
2022/12/22 06:14:12;;;;;;;;;;;;;;;;;;5055189;28;19915;-56
2022/12/22 06:16:38;;;;;;;;;;;;;;;;;;5055312;28;19916;-56
2022/12/22 06:19:04;;;;;;;;;;;;;;;;;;5053893;28;19909;-56
2022/12/22 06:21:30;;;;;;;;;;;;;;;;;;5053990;28;19908;-57
2022/12/22 06:23:56;;;;;;;;;;;;;;;;;;5055029;28;19913;-57
2022/12/22 06:26:22;;;;;;;;;;;;;;;;;;5054985;28;19943;-50
2022/12/22 06:28:48;;;;;;;;;;;;;;;;;;5054918;28;20500;-49
2022/12/22 06:31:14;;;;;;;;;;;;;;;;;;5055031;28;19909;-49
2022/12/22 06:33:40;;;;;;;;;;;;;;;;;;5055005;28;19909;-49
2022/12/22 06:36:06;;;;;;;;;;;;;;;;;;5054802;28;19916;-51
2022/12/22 06:38:31;;;;;;;;;;;;;;;;;;5054570;28;20391;-51
2022/12/22 06:40:57;;;;;;;;;;;;;;;;;;5054824;28;19959;-53
2022/12/22 06:43:23;;;;;;;;;;;;;;;;;;5055151;28;19960;-49
2022/12/22 06:45:49;;;;;;;;;;;;;;;;;;5054737;28;19944;-49
2022/12/22 06:48:15;;;;;;;;;;;;;;;;;;5054651;28;19909;-52
2022/12/22 06:50:41;;;;;;;;;;;;;;;;;;5054868;28;19996;-49
2022/12/22 06:53:07;;;;;;;;;;;;;;;;;;5054663;28;20369;-49
2022/12/22 06:55:33;;;;;;;;;;;;;;;;;;5054523;28;19913;-54
2022/12/22 06:57:59;;;;;;;;;;;;;;;;;;5054566;28;19909;-54
2022/12/22 07:00:25;;;;;;;;;;;;;;;;;;5054371;28;19935;-54
2022/12/22 07:02:51;;;;;;;;;;;;;;;;;;5051286;28;20049;-54
2022/12/22 07:05:16;;;;;;;;;;;7.60;99.90;;;;;;5038896;28;19914;-55
2022/12/22 07:07:42;;;;;;;;;;;7.60;99.90;;;;;;5034463;28;19916;-56
2022/12/22 07:10:08;;;;;;;;;;;7.60;99.90;;;;;;5034256;28;19909;-55
2022/12/22 07:12:33;;;;;;;;;;;7.70;99.90;;;;;;5033258;28;20385;-60
2022/12/22 07:14:59;;;;;;;;;;;7.70;99.90;;;;;;5034237;28;19917;-55
2022/12/22 07:17:24;;;;;;;;;;;7.70;99.90;;;;;;5034450;28;19991;-54
2022/12/22 07:19:50;;;;;;;;;;;7.60;99.90;;;;;;5034100;28;19913;-55
2022/12/22 07:22:15;;;;;;;;;;;7.70;99.90;;;;;;5032986;28;20023;-56
2022/12/22 07:24:41;;;;;;;;;;;7.70;99.90;;;;;;5033980;28;19909;-54
2022/12/22 07:27:07;;;;;;;;;;;7.70;99.90;;;;;;5034044;28;19909;-56
2022/12/22 07:29:35;;;;;;;;;;;7.70;99.90;;;;;;5034037;28;19963;-57
2022/12/22 07:32:00;;;;;;;;;;;7.70;99.90;;;;;;5034058;28;19964;-56
2022/12/22 07:34:26;;;;;;;;;;;7.90;99.90;;;;;;5033804;28;20337;-57
2022/12/22 07:36:51;;;;;;;;;;;7.90;99.90;;;;;;5033859;28;19913;-60
2022/12/22 07:39:17;;;;;;;;;;;8.00;99.90;;;;;;5033638;28;19909;-50
2022/12/22 07:44:27;;;;;;;;;;;8.10;99.90;;;;;;5033742;28;19921;-54
2022/12/22 07:46:54;;;;;;;;;;;8.10;99.90;;;;;;5033032;28;20264;-56
2022/12/22 07:52:04;;;;;;;;;;;8.10;99.90;;;;;;5033951;28;19990;-56
2022/12/22 07:54:29;;;;;;;;;;;8.00;99.90;;;;;;5033536;28;19983;-55
2022/12/22 07:56:55;;;;;;;;;;;7.90;99.90;;;;;;5033482;28;19909;-58
2022/12/22 07:59:21;;;;;;;;;;;7.90;99.90;;;;;;5033214;28;19920;-60
2022/12/22 08:01:46;;;;;;;;;;;7.90;99.90;;;;;;5033236;28;19909;-56
2022/12/22 08:04:13;;;;;;;;;;;7.90;99.90;;;;;;5033395;28;19909;-60
2022/12/22 08:06:38;;;;;;;;;;;7.90;99.90;;;;;;5033276;28;19921;-59
2022/12/22 08:09:04;;;;;;;;;;;7.90;99.90;;;;;;5033197;28;19909;-54
2022/12/22 08:11:30;;;;;;;;;;;8.00;99.90;;;;;;5033288;28;20290;-55
2022/12/22 08:13:56;;;;;;;;;;;8.10;99.90;;;;;;5033192;28;19916;-58
2022/12/22 08:16:21;;;;;;;;;;;8.00;99.90;;;;;;5033005;28;19917;-59
2022/12/22 08:18:47;;;;;;;;;;;8.10;99.90;;;;;;5032892;28;19913;-60
2022/12/22 08:21:13;;;;;;;;;;;8.20;99.90;;;;;;5036616;28;20275;-60
2022/12/22 08:23:38;;;;;;;;;;;;;;;;;;5051683;28;19979;-57
2022/12/22 08:26:10;;;;;;;;;;;8.30;99.90;;;;;;5052887;28;19908;-59
2022/12/22 08:28:38;;;;;;;;;;;8.30;99.90;;;;;;5038518;28;19913;-57
2022/12/22 08:31:04;;;;;;;;;;;8.40;99.90;;;;;;5032885;28;19916;-60
2022/12/22 08:33:29;;;;;;;;;;;8.40;99.90;;;;;;5048795;28;19913;-59
2022/12/22 08:35:55;;;;;;;;;;;8.40;99.90;;;;;;5052677;28;19999;-59
2022/12/22 08:38:21;;;;;;;;;;;10.80;99.90;;;;;;5052626;28;19920;-60
2022/12/22 08:40:47;;;;;;;;;;;8.40;99.90;;;;;;5052685;28;19916;-59
2022/12/22 08:43:13;;;;;;;;;;;8.40;99.70;;;;;;5052502;28;19913;-57
2022/12/22 08:45:40;;;;;;;;;;;8.30;99.90;;;;;;5052560;28;19909;-60
2022/12/22 08:48:05;;;;;;;;;;;8.40;99.90;;;;;;5052499;28;20297;-59
2022/12/22 08:50:31;;;;;;;;;;;8.40;99.90;;;;;;5052720;28;19909;-57
2022/12/22 08:53:03;;;;;;;;;;;8.50;99.90;;;;;;5052921;28;19991;-62
2022/12/22 08:55:29;;;;;;;;;;;8.50;99.20;;;;;;5052394;28;19940;-58
2022/12/22 08:57:54;;;;;;;;;;;8.50;99.60;;;;;;5052290;28;19960;-60
2022/12/22 09:00:20;;;;;;;;;;;8.50;99.60;;;;;;5052217;28;19909;-61
2022/12/22 09:02:46;;;;;;;;;;;8.60;99.80;;;;;;5052040;28;19912;-57
2022/12/22 09:05:11;;;;;;;;;;;8.70;99.20;;;;;;5052136;28;20012;-57
2022/12/22 09:07:37;;;;;;;;;;;8.80;99.40;;;;;;5052165;28;19909;-58
2022/12/22 09:10:02;;;;;;;;;;;8.80;98.40;;;;;;5051991;28;20454;-57
2022/12/22 09:12:28;;;;;;;;;;;8.80;99.00;;;;;;5050748;28;19909;-58
2022/12/22 09:14:54;;;;;;;;;;;8.80;98.70;;;;;;5051889;28;20278;-58
2022/12/22 09:17:19;;;;;;;;;;;8.80;98.90;;;;;;5052034;28;20206;-58
2022/12/22 09:19:45;;;;;;;;;;;;;;;;;;5051786;28;20012;-58
2022/12/22 09:22:11;;;;;;;;;;;;;;;;;;5050635;28;19921;-57
2022/12/22 09:24:37;;;;;;;;;;;;;;;;;;5051911;28;20013;-57
2022/12/22 09:27:04;;;;;;;;;;;8.90;98.10;;;;;;5050587;28;20004;-56
2022/12/22 09:29:29;;;;;;;;;;;8.80;98.40;;;;;;5051789;28;19909;-58
2022/12/22 09:31:55;;;;;;;;;;;8.90;98.70;;;;;;5051891;28;20277;-58
2022/12/22 09:34:21;;;;;;;;;;;;;;;;;;5052306;28;20334;-59
2022/12/22 09:36:47;;;;;;;;;;;;;;;;;;5051800;28;19995;-59
2022/12/22 09:39:13;;;;;;;;;;;;;;;;;;5051720;28;20439;-58
2022/12/22 09:41:39;;;;;;;;;;;;;;;;;;5051747;28;19908;-59
2022/12/22 09:44:05;;;;;;;;;;;;;;;;;;5051662;28;19917;-59
2022/12/22 09:46:31;;;;;;;;;;;;;;;;;;5055598;28;19917;-59
2022/12/22 09:48:57;;;;;;;;;;;;;;;;;;5055533;28;20000;-59
2022/12/22 09:51:23;;;;;;;;;;;;;;;;;;5055692;28;19908;-58
2022/12/22 09:53:49;;;;;;;;;;;;;;;;;;5055869;28;19975;-58
2022/12/22 09:56:15;;;;;;;;;;;;;;;;;;5055564;28;19992;-54
2022/12/22 09:58:41;;;;;;;;;;;9.40;97.00;;;;;;5054154;28;19913;-56
2022/12/22 10:01:15;;;;;;;;;;;9.40;96.50;;;;;;5054176;28;19916;-54
2022/12/22 10:03:47;;;;;;;;;;;9.40;96.30;;;;;;5055484;28;19923;-56
2022/12/22 10:06:17;;;;;;;;;;;9.40;96.20;;;;;;5055427;28;19916;-52
2022/12/22 10:08:43;;;;;;;;;;;9.40;96.60;;;;;;5055190;28;19959;-55
2022/12/22 10:11:16;;;;;;;;;;;9.30;96.20;;;;;;5055357;28;20266;-56
2022/12/22 10:13:42;;;;;;;;;;;9.20;96.10;;;;;;5053938;28;20374;-56
2022/12/22 10:16:07;;;;;;;;;;;;;;;;;;5037289;28;19923;-55
2022/12/22 10:18:34;;;;;;;;;;;9.10;96.90;;;;;;5055120;28;19913;-56
2022/12/22 10:21:10;;;;;;;;;;;9.30;96.40;;;;;;5055117;28;19931;-56
2022/12/22 10:23:37;;;;;;;;;;;9.30;96.40;;;;;;5055001;28;19952;-56
2022/12/22 10:26:21;;;;;;;;;;;9.40;96.30;;;;;;5053722;28;19909;-54
2022/12/22 10:29:09;;;;;;;;;;;9.40;96.40;;;;;;5055037;28;19909;-59
2022/12/22 10:31:35;;;;;;;;;;;9.40;96.50;;;;;;5055062;28;19919;-53
2022/12/22 10:34:01;;;;;;;;;;;;;;;;;;5054855;28;19935;-56
2022/12/22 10:36:29;;;;;;;;;;;9.30;96.00;;;;;;5053537;28;20372;-53
2022/12/22 10:38:55;;;;;;;;;;;;;;;;;;5054810;28;20373;-56
2022/12/22 10:41:22;;;;;;;;;;;9.30;95.80;;;;;;5054835;28;19915;-52
2022/12/22 10:43:59;;;;;;;;;;;9.10;96.80;;;;;;5054964;28;20000;-56
2022/12/22 10:46:30;;;;;;;;;;;9.10;96.70;;;;;;5053295;28;19912;-59
2022/12/22 10:49:08;;;;;;;;;;;9.10;96.60;;;;;;5053176;28;20331;-57
2022/12/22 10:51:34;;;;;;;;;;;;;;;;;;5054660;28;19913;-57
2022/12/22 10:54:00;;;;;;;;;;;;;;;;;;5054558;28;19955;-58
2022/12/22 10:56:26;;;;;;;;;;;;;;;;;;5049916;28;19912;-53
2022/12/22 10:58:52;;;;;;;;;;;;;;;;;;5039157;28;19921;-53
2022/12/22 11:01:18;;;;;;;;;;;;;;;;;;5044321;28;19913;-54
2022/12/22 11:03:43;;;;;;;;;;;9.30;96.80;;;;;;5051343;28;20555;-53
2022/12/22 11:06:09;;;;;;;;;;;;;;;;;;5052621;28;19917;-57
2022/12/22 11:08:35;;;;;;;;;;;;;;;;;;5037979;28;20400;-56
2022/12/22 11:11:18;;;;;;;;;;;9.60;96.00;;;;;;5034341;28;19920;-55
2022/12/22 11:13:44;;;;;;;;;;;;;;;;;;5052052;28;19919;-56
2022/12/22 11:16:32;;;;;;;;;;;9.80;95.80;;;;;;5050024;28;19921;-54
2022/12/22 11:18:57;;;;;;;;;;;9.70;95.20;;;;;;5043504;28;20386;-54
2022/12/22 11:21:35;;;;;;;;;;;9.60;96.20;;;;;;5034066;28;20000;-57
2022/12/22 11:24:01;;;;;;;;;;;;;;;;;;5047272;28;19917;-55
2022/12/22 11:26:27;;;;;;;;;;;;;;;;;;5045270;28;19960;-56
2022/12/22 11:28:53;;;;;;;;;;;;;;;;;;5042843;28;19914;-56
2022/12/22 11:31:19;;;;;;;;;;;;;;;;;;5037780;28;19914;-58
2022/12/22 11:33:45;;;;;;;;;;;;;;;;;;5042611;28;19913;-57
2022/12/22 11:36:12;;;;;;;;;;;;;;;;;;5040009;28;19919;-59
2022/12/22 11:38:57;;;;;;;;;;;9.70;96.00;;;;;;5046151;28;19982;-56
2022/12/22 11:41:26;;;;;;;;;;;;;;;;;;5035814;28;19913;-59
2022/12/22 11:43:55;;;;;;;;;;;;;;;;;;5052974;28;19916;-58
2022/12/22 11:46:30;;;;;;;;;;;9.80;96.60;;;;;;5041540;28;19913;-58
2022/12/22 11:49:08;;;;;;;;;;;9.90;96.60;;;;;;5034097;28;20007;-60
2022/12/22 11:51:52;;;;;;;;;;;9.90;96.10;;;;;;5033563;28;19952;-60
2022/12/22 11:54:37;;;;;;;;;;;9.90;95.80;;;;;;5032834;28;20440;-56
2022/12/22 11:57:13;;;;;;;;;;;9.90;95.80;;;;;;5036010;28;19913;-59
2022/12/22 11:59:57;;;;;;;;;;;9.90;95.80;;;;;;5035898;28;20302;-58
2022/12/22 12:05:54;;;;;;;;;;;9.90;95.90;;;;;;5030578;28;19959;-57
2022/12/22 12:08:38;;;;;;;;;;;9.90;96.30;;;;;;5032055;28;19910;-59
2022/12/22 12:11:04;;;;;;;;;;;;;;;;;;5032030;28;19913;-57
2022/12/22 12:13:43;;;;;;;;;;;9.90;96.70;;;;;;5040008;28;19983;-55
2022/12/22 12:16:31;;;;;;;;;;;10.20;95.80;;;;;;5042019;28;20205;-57
2022/12/22 12:19:20;;;;;;;;;;;10.40;96.50;;;;;;5033429;28;19975;-58
2022/12/22 12:24:39;;;;;;;;;;;;;;;;;;5052488;28;19938;-55
2022/12/22 12:30:12;;;;;;;;;;;11.20;93.60;;;;;;5041039;28;20397;-57
2022/12/22 12:32:42;;;;;;;;;;;11.40;92.70;;;;;;5049616;28;20270;-60
2022/12/22 12:35:20;;;;;;;;;;;11.90;91.50;;;;;;5052584;28;19922;-58
2022/12/22 12:37:56;;;;;;;;;;;12.00;91.30;;;;;;5052500;28;19941;-59
2022/12/22 12:40:56;;;;;;;;;;;11.80;91.10;;;;;;5039609;28;19931;-60
2022/12/22 12:43:25;;;;;;;;;;;11.70;91.30;;;;;;5050674;28;19921;-56
2022/12/22 12:45:56;;;;;;;;;;;11.30;92.10;;;;;;5044814;28;19982;-61
2022/12/22 12:48:23;;;;;;;;;;;11.10;92.50;;;;;;5051751;28;19908;-60
2022/12/22 12:50:58;;;;;;;;;;;11.00;92.90;;;;;;5037044;28;19913;-56
2022/12/22 12:53:27;;;;;;;;;;;11.10;93.20;;;;;;5051147;28;19924;-58
2022/12/22 12:56:00;;;;;;;;;;;10.90;92.50;;;;;;5038471;28;20297;-57
2022/12/22 12:58:47;;;;;;;;;;;10.90;93.00;;;;;;5035236;28;19967;-59
2022/12/22 13:01:39;;;;;;;;;;;10.80;93.30;;;;;;5037425;28;20362;-59
2022/12/22 13:04:07;;;;;;;;;;;10.70;93.50;;;;;;5029886;28;20015;-59
2022/12/22 13:06:45;;;;;;;;;;;10.70;93.60;;;;;;5032213;28;19909;-55
2022/12/22 13:09:21;;;;;;;;;;;10.60;93.90;;;;;;5031853;28;20404;-59
2022/12/22 13:11:49;;;;;;;;;;;10.70;93.90;;;;;;5037123;28;19913;-57
2022/12/22 13:17:33;;;;;;;;;;;10.70;94.00;;;;;;5044386;28;20339;-59
2022/12/22 13:19:58;;;;;;;;;;;10.80;94.20;;;;;;5040503;28;19913;-58
2022/12/22 13:22:24;;;;;;;;;;;10.70;93.80;;;;;;5041140;28;20529;-57
2022/12/22 13:24:50;;;;;;;;;;;;;;;;;;5051207;28;19909;-57
2022/12/22 13:27:16;;;;;;;;;;;10.60;93.80;;;;;;5049744;28;19909;-56
2022/12/22 13:29:44;;;;;;;;;;;10.40;95.00;;;;;;5039269;28;19940;-59
2022/12/22 13:32:12;;;;;;;;;;;10.40;95.00;;;;;;5050333;28;19913;-56
2022/12/22 13:34:41;;;;;;;;;;;10.30;95.00;;;;;;5051926;28;19931;-58
2022/12/22 13:37:17;;;;;;;;;;;10.30;95.00;;;;;;5046764;28;19917;-57
2022/12/22 13:40:05;;;;;;;;;;;10.30;95.20;;;;;;5040866;28;19916;-59
2022/12/22 13:42:34;;;;;;;;;;;10.30;95.70;;;;;;5039466;28;20008;-59
2022/12/22 13:45:00;;;;;;;;;;;10.30;95.30;;;;;;5038666;28;19963;-60
2022/12/22 13:47:26;;;;;;;;;;;10.20;94.80;;;;;;5032159;28;19919;-56
2022/12/22 13:49:51;;;;;;;;;;;10.20;94.70;;;;;;5032920;28;20356;-57
2022/12/22 13:52:20;;;;;;;;;;;;;;;;;;5037474;28;19982;-58
2022/12/22 13:54:45;;;;;;;;;;;10.20;94.80;;;;;;5049080;28;20382;-59
2022/12/22 13:57:14;;;;;;;;;;;10.20;95.10;;;;;;5031783;28;19995;-58
2022/12/22 13:59:41;;;;;;;;;;;10.20;95.30;;;;;;5042928;28;19914;-60
2022/12/22 14:02:07;;;;;;;;;;;10.20;95.30;;;;;;5038575;28;20012;-60
2022/12/22 14:04:34;;;;;;;;;;;10.20;94.90;;;;;;5050901;28;20011;-58
2022/12/22 14:07:12;;;;;;;;;;;10.20;95.20;;;;;;5050370;28;19912;-59
2022/12/22 14:13:15;;;;;;;;;;;10.00;95.00;;;;;;5049052;28;19982;-59
2022/12/22 14:15:41;;;;;;;;;;;;;;;;;;5039207;28;19924;-58
2022/12/22 14:18:10;;;;;;;;;;;;;;;;;;5049188;28;19917;-59
2022/12/22 14:20:45;;;;;;;;;;;9.90;95.20;;;;;;5044096;28;19917;-60
2022/12/22 14:25:56;;;;;;;;;;;;;;;;;;5029760;28;20385;-59
2022/12/22 14:28:52;;;;;;;;;;;9.90;95.00;;;;;;5042263;28;20381;-59
2022/12/22 14:31:18;;;;;;;;;;;9.80;95.50;;;;;;5033566;28;19966;-58
2022/12/22 14:33:44;;;;;;;;;;;;;;;;;;5039386;28;20452;-57
2022/12/22 14:36:25;;;;;;;;;;;9.70;95.30;;;;;;5032817;28;19916;-58
2022/12/22 14:38:51;;;;;;;;;;;9.70;95.30;;;;;;5037629;28;19917;-57
2022/12/22 14:41:40;;;;;;;;;;;9.70;95.20;;;;;;5052737;28;19985;-59
2022/12/22 14:44:12;;;;;;;;;;;;;;;;;;5041193;28;19917;-58
2022/12/22 14:46:38;;;;;;;;;;;;;;;;;;5047357;28;19919;-58
2022/12/22 14:49:04;;;;;;;;;;;;;;;;;;5053433;28;20393;-60
2022/12/22 14:51:30;;;;;;;;;;;;;;;;;;5052404;28;19913;-59
2022/12/22 14:53:56;;;;;;;;;;;;;;;;;;5044079;28;19913;-57
2022/12/22 14:56:22;;;;;;;;;;;;;;;;;;5035176;28;19919;-56
2022/12/22 14:59:05;;;;;;;;;;;9.40;95.40;;;;;;5049810;28;19920;-55
2022/12/22 15:01:31;;;;;;;;;;;9.30;95.10;;;;;;5041303;28;19928;-57
2022/12/22 15:03:59;;;;;;;;;;;9.30;95.10;;;;;;5051846;28;19916;-57
2022/12/22 15:09:54;;;;;;;;;;;9.20;95.20;;;;;;5050611;28;19916;-53
2022/12/22 15:12:20;;;;;;;;;;;9.10;95.00;;;;;;5049079;28;20288;-56
2022/12/22 15:14:47;;;;;;;;;;;9.00;95.00;;;;;;5052648;28;19909;-58
2022/12/22 15:17:21;;;;;;;;;;;9.00;95.40;;;;;;5038172;28;19984;-59
2022/12/22 15:19:47;;;;;;;;;;;8.90;95.40;;;;;;4955732;28;2223989;-57
2022/12/22 15:22:16;;;;;;;;;;;8.90;95.50;;;;;;5036284;28;19956;-57
2022/12/22 15:24:43;;;;;;;;;;;8.80;95.40;;;;;;5040646;28;19917;-56
2022/12/22 15:27:09;;;;;;;;;;;;;;;;;;5051075;28;20622;-53
2022/12/22 15:29:35;;;;;;;;;;;;;;;;;;5052750;28;19909;-58
2022/12/22 15:32:01;;;;;;;;;;;;;;;;;;5051288;28;19920;-56
2022/12/22 15:34:34;;;;;;;;;;;;;;;;;;5048617;28;19917;-56
2022/12/22 15:37:00;;;;;;;;;;;8.60;95.30;;;;;;5037954;28;19913;-56
2022/12/22 15:39:26;;;;;;;;;;;8.50;95.40;;;;;;5035043;28;20338;-58
2022/12/22 15:41:55;;;;;;;;;;;8.40;95.50;;;;;;5050301;28;20097;-58
2022/12/22 15:44:23;;;;;;;;;;;8.30;95.70;;;;;;5045013;28;20011;-56
2022/12/22 15:46:58;;;;;;;;;;;8.30;95.90;;;;;;5042013;28;20353;-56
2022/12/22 15:49:25;;;;;;;;;;;8.20;96.00;;;;;;5033366;28;19926;-56
2022/12/22 15:51:54;;;;;;;;;;;8.20;96.00;;;;;;5051119;28;19935;-57
2022/12/22 15:54:20;;;;;;;;;;;8.20;95.80;;;;;;5053335;28;19909;-58
2022/12/22 15:56:46;;;;;;;;;;;8.20;96.00;;;;;;5053337;28;19909;-55
2022/12/22 15:59:28;;;;;;;;;;;8.20;96.00;;;;;;5051200;28;19913;-57
2022/12/22 16:01:56;;;;;;;;;;;8.10;96.10;;;;;;5042747;28;19913;-58
2022/12/22 16:04:22;;;;;;;;;;;8.10;95.90;;;;;;5052613;28;19921;-54
2022/12/22 16:06:49;;;;;;;;;;;8.10;96.10;;;;;;5052476;28;20440;-54
2022/12/22 16:09:22;;;;;;;;;;;8.00;96.00;;;;;;5052935;28;19951;-53
2022/12/22 16:11:48;;;;;;;;;;;8.00;96.10;;;;;;5047084;28;20374;-55
2022/12/22 16:14:15;;;;;;;;;;;7.90;95.90;;;;;;5035321;28;19920;-55
2022/12/22 16:16:41;;;;;;;;;;;;;;;;;;5039495;28;19913;-53
2022/12/22 16:19:08;;;;;;;;;;;;;;;;;;5033620;28;20003;-56
2022/12/22 16:21:36;;;;;;;;;;;7.90;96.10;;;;;;5049901;28;20267;-54
2022/12/22 16:24:02;;;;;;;;;;;;;;;;;;5050970;28;19920;-55
2022/12/22 16:26:28;;;;;;;;;;;7.60;96.60;;;;;;5041574;28;19975;-56
2022/12/22 16:28:54;;;;;;;;;;;7.60;96.80;;;;;;5041334;28;20007;-56
2022/12/22 16:31:21;;;;;;;;;;;7.60;96.80;;;;;;5047022;28;20011;-55
2022/12/22 16:33:53;;;;;;;;;;;7.50;96.90;;;;;;5044528;28;19912;-55
2022/12/22 16:36:18;;;;;;;;;;;7.50;96.80;;;;;;5047393;28;20007;-56
2022/12/22 16:38:46;;;;;;;;;;;7.50;97.70;;;;;;5039348;28;20009;-57
2022/12/22 16:41:17;;;;;;;;;;;7.50;97.40;;;;;;5036087;28;20412;-59
2022/12/22 16:43:43;;;;;;;;;;;7.50;97.50;;;;;;5033572;28;20037;-58
2022/12/22 16:46:12;;;;;;;;;;;7.50;97.00;;;;;;5034272;28;20044;-56
2022/12/22 16:48:52;;;;;;;;;;;7.60;97.00;;;;;;5036407;28;20545;-54
2022/12/22 16:51:20;;;;;;;;;;;7.40;97.00;;;;;;5046078;28;19913;-54
2022/12/22 16:53:49;;;;;;;;;;;7.40;97.40;;;;;;5048461;28;20021;-55
2022/12/22 16:56:17;;;;;;;;;;;7.30;97.10;;;;;;5047826;28;19913;-57
2022/12/22 16:58:43;;;;;;;;;;;7.30;97.70;;;;;;5047578;28;19919;-56
2022/12/22 17:01:29;;;;;;;;;;;7.30;98.00;;;;;;5050850;28;19959;-53
2022/12/22 17:03:57;;;;;;;;;;;7.30;97.90;;;;;;5038775;28;20392;-53
2022/12/22 17:06:23;;;;;;;;;;;7.40;97.40;;;;;;5051105;28;19913;-52
2022/12/22 17:08:49;;;;;;;;;;;7.30;97.70;;;;;;5047674;28;19944;-53
2022/12/22 17:11:23;;;;;;;;;;;7.30;97.90;;;;;;5034670;28;19953;-58
2022/12/22 17:13:51;;;;;;;;;;;7.30;97.90;;;;;;5036182;28;20055;-57
2022/12/22 17:16:21;;;;;;;;;;;7.30;97.40;;;;;;5047094;28;19920;-59
2022/12/22 17:18:47;;;;;;;;;;;;;;;;;;5043654;28;19912;-59
2022/12/22 17:21:13;;;;;;;;;;;;;;;;;;5050435;28;19916;-54
2022/12/22 17:23:39;;;;;;;;;;;;;;;;;;5050676;28;20369;-56
2022/12/22 17:26:05;;;;;;;;;;;;;;;;;;5046561;28;20435;-59
2022/12/22 17:28:31;;;;;;;;;;;;;;;;;;5034089;28;19913;-56
2022/12/22 17:30:57;;;;;;;;;;;7.10;97.50;;;;;;5031768;28;19947;-58
2022/12/22 17:33:26;;;;;;;;;;;7.00;98.30;;;;;;5033684;28;20027;-59
2022/12/22 17:35:52;;;;;;;;;;;7.00;98.10;;;;;;5036597;28;20309;-55
2022/12/22 17:41:21;;;;;;;;;;;7.10;98.40;;;;;;5048048;28;19966;-56
2022/12/22 17:43:46;;;;;;;;;;;7.30;98.40;;;;;;5043486;28;19917;-57
2022/12/22 17:46:17;;;;;;;;;;;7.40;98.10;;;;;;5033021;28;19923;-56
2022/12/22 17:48:43;;;;;;;;;;;7.50;98.10;;;;;;5044688;28;19920;-59
2022/12/22 17:51:14;;;;;;;;;;;7.50;98.00;;;;;;5048658;28;19913;-57
2022/12/22 17:53:40;;;;;;;;;;;7.60;97.70;;;;;;5042158;28;19974;-58
2022/12/22 17:56:06;;;;;;;;;;;7.60;97.60;;;;;;5051083;28;20282;-59
2022/12/22 17:58:32;;;;;;;;;;;7.60;97.90;;;;;;5045154;28;20428;-58
2022/12/22 18:00:57;;;;;;;;;;;7.60;97.70;;;;;;5047236;28;19920;-59
2022/12/22 18:03:27;;;;;;;;;;;7.50;97.90;;;;;;5051367;28;19917;-55
2022/12/22 18:05:53;;;;;;;;;;;7.60;97.90;;;;;;5052623;28;19963;-59
2022/12/22 18:08:22;;;;;;;;;;;7.60;97.80;;;;;;5055275;28;19916;-54
2022/12/22 18:10:51;;;;;;;;;;;7.70;97.50;;;;;;5055208;28;20266;-55
2022/12/22 18:13:23;;;;;;;;;;;7.70;97.40;;;;;;5053795;28;19909;-53
2022/12/22 18:15:48;;;;;;;;;;;7.70;97.40;;;;;;5055507;28;20411;-60
2022/12/22 18:18:15;;;;;;;;;;;7.80;97.50;;;;;;5048210;28;19912;-59
2022/12/22 18:20:41;;;;;;;;;;;;;;;;;;5055112;28;19917;-60
2022/12/22 18:23:13;;;;;;;;;;;7.80;97.50;;;;;;5054314;28;20051;-57
2022/12/22 18:25:39;;;;;;;;;;;7.90;97.20;;;;;;5035240;28;19944;-60
2022/12/22 18:28:05;;;;;;;;;;;;;;;;;;5035920;28;20405;-56
2022/12/22 18:30:32;;;;;;;;;;;;;;;;;;5042954;28;19920;-59
2022/12/22 18:32:59;;;;;;;;;;;;;;;;;;5043163;28;19921;-59
2022/12/22 18:35:25;;;;;;;;;;;;;;;;;;5045706;28;19912;-59
2022/12/22 18:37:53;;;;;;;;;;;8.10;96.60;;;;;;5044518;28;19913;-57
2022/12/22 18:40:19;;;;;;;;;;;;;;;;;;5048221;28;19913;-56
2022/12/22 18:42:54;;;;;;;;;;;;;;;;;;5043826;28;19924;-57
2022/12/22 18:45:20;;;;;;;;;;;;;;;;;;5040742;28;20004;-58
2022/12/22 18:47:46;;;;;;;;;;;;;;;;;;5046164;28;19999;-56
2022/12/22 18:50:19;;;;;;;;;;;8.30;97.00;;;;;;5052319;28;19959;-53
2022/12/22 18:52:45;;;;;;;;;;;8.40;96.80;;;;;;5054693;28;19984;-57
2022/12/22 18:55:22;;;;;;;;;;;8.30;97.00;;;;;;5053859;28;19912;-54
2022/12/22 18:57:52;;;;;;;;;;;8.30;97.30;;;;;;5047585;28;19920;-56
2022/12/22 19:00:19;;;;;;;;;;;8.30;97.30;;;;;;5043155;28;19959;-56
2022/12/22 19:02:46;;;;;;;;;;;8.30;97.40;;;;;;5058360;28;19946;-58
2022/12/22 19:05:13;;;;;;;;;;;8.20;97.20;;;;;;5054359;28;19916;-55
2022/12/22 19:07:39;;;;;;;;;;;8.30;97.40;;;;;;5045615;28;19943;-55
2022/12/22 19:10:06;;;;;;;;;;;8.30;97.40;;;;;;5045798;28;20381;-58
2022/12/22 19:12:37;;;;;;;;;;;8.40;97.40;;;;;;5051554;28;19996;-58
2022/12/22 19:15:04;;;;;;;;;;;8.30;97.40;;;;;;5047309;28;19935;-59
2022/12/22 19:17:31;;;;;;;;;;;8.30;97.60;;;;;;5047139;28;19923;-59
2022/12/22 19:19:56;;;;;;;;;;;8.30;97.50;;;;;;5046826;28;19920;-56
2022/12/22 19:22:22;;;;;;;;;;;8.30;97.60;;;;;;5050562;28;19924;-53
2022/12/22 19:24:49;;;;;;;;;;;8.30;97.40;;;;;;5044257;28;19912;-56